createdAt,value
2018-08-10T00:00:45.779Z,18.85
2018-08-10T00:01:45.772Z,18.88
2018-08-10T00:02:45.766Z,18.87
2018-08-10T00:03:45.762Z,18.75
2018-08-10T00:04:45.752Z,18.81
2018-08-10T00:05:45.742Z,18.73
2018-08-10T00:06:45.740Z,18.81
2018-08-10T00:07:45.735Z,18.70
2018-08-10T00:08:45.759Z,18.70
2018-08-10T00:09:45.715Z,18.81
2018-08-10T00:10:45.709Z,18.85
2018-08-10T00:11:45.699Z,18.85
2018-08-10T00:12:45.693Z,18.91
2018-08-10T00:13:45.680Z,18.84
2018-08-10T00:14:45.677Z,18.78
2018-08-10T00:15:45.669Z,18.84
2018-08-10T00:16:45.666Z,18.84
2018-08-10T00:17:45.650Z,18.84
2018-08-10T00:18:45.649Z,18.84
2018-08-10T00:19:45.636Z,18.72
2018-08-10T00:20:45.626Z,18.70
2018-08-10T00:21:45.625Z,18.75
2018-08-10T00:22:45.613Z,18.69
2018-08-10T00:23:45.615Z,18.57
2018-08-10T00:24:45.601Z,18.60
2018-08-10T00:25:45.582Z,18.58
2018-08-10T00:26:45.579Z,18.63
2018-08-10T00:27:45.578Z,18.55
2018-08-10T00:28:45.572Z,18.50
2018-08-10T00:29:45.561Z,18.48
2018-08-10T00:30:45.552Z,18.55
2018-08-10T00:31:45.545Z,18.54
2018-08-10T00:32:45.539Z,18.44
2018-08-10T00:33:45.533Z,18.50
2018-08-10T00:34:45.522Z,18.50
2018-08-10T00:35:45.528Z,18.55
2018-08-10T00:36:45.508Z,18.55
2018-08-10T00:37:45.496Z,18.58
2018-08-10T00:38:45.488Z,18.51
2018-08-10T00:39:45.480Z,18.54
2018-08-10T00:40:45.473Z,18.67
2018-08-10T00:41:45.478Z,18.54
2018-08-10T00:42:45.468Z,18.57
2018-08-10T00:43:45.451Z,18.57
2018-08-10T00:44:45.444Z,18.60
2018-08-10T00:45:45.439Z,18.72
2018-08-10T00:46:45.433Z,18.70
2018-08-10T00:47:45.421Z,18.73
2018-08-10T00:48:45.413Z,18.73
2018-08-10T00:49:45.404Z,18.75
2018-08-10T00:50:45.404Z,18.73
2018-08-10T00:51:45.388Z,18.73
2018-08-10T00:52:45.384Z,18.75
2018-08-10T00:53:45.370Z,18.76
2018-08-10T00:54:45.360Z,18.75
2018-08-10T00:55:45.358Z,18.81
2018-08-10T00:56:45.346Z,18.84
2018-08-10T00:57:45.341Z,18.88
2018-08-10T00:58:45.338Z,18.91
2018-08-10T00:59:45.329Z,18.90
2018-08-10T01:00:45.315Z,18.88
2018-08-10T01:01:45.310Z,18.90
2018-08-10T01:02:45.303Z,18.99
2018-08-10T01:03:45.299Z,18.87
2018-08-10T01:04:45.289Z,18.84
2018-08-10T01:05:45.278Z,18.87
2018-08-10T01:06:45.269Z,18.75
2018-08-10T01:07:45.264Z,18.85
2018-08-10T01:08:45.256Z,18.90
2018-08-10T01:09:45.244Z,18.95
2018-08-10T01:10:45.242Z,18.82
2018-08-10T01:11:45.236Z,18.85
2018-08-10T01:12:45.224Z,18.80
2018-08-10T01:13:45.220Z,18.84
2018-08-10T01:14:45.205Z,18.78
2018-08-10T01:15:45.208Z,18.72
2018-08-10T01:16:45.197Z,18.75
2018-08-10T01:17:45.187Z,18.73
2018-08-10T01:18:45.181Z,18.70
2018-08-10T01:19:45.172Z,18.73
2018-08-10T01:20:45.161Z,18.73
2018-08-10T01:21:45.154Z,18.55
2018-08-10T01:22:45.142Z,18.54
2018-08-10T01:23:45.142Z,18.60
2018-08-10T01:24:45.139Z,18.63
2018-08-10T01:25:45.126Z,18.58
2018-08-10T01:26:45.117Z,18.58
2018-08-10T01:27:45.107Z,18.60
2018-08-10T01:28:45.224Z,18.55
2018-08-10T01:29:45.095Z,18.72
2018-08-10T01:30:45.084Z,18.70
2018-08-10T01:31:45.078Z,18.67
2018-08-10T01:32:45.068Z,18.70
2018-08-10T01:33:45.063Z,18.67
2018-08-10T01:34:45.053Z,18.72
2018-08-10T01:35:45.045Z,18.75
2018-08-10T01:36:45.035Z,18.70
2018-08-10T01:37:45.030Z,18.72
2018-08-10T01:38:45.019Z,18.80
2018-08-10T01:39:45.008Z,18.75
2018-08-10T01:40:45.008Z,18.72
2018-08-10T01:41:44.996Z,18.76
2018-08-10T01:42:44.991Z,18.84
2018-08-10T01:43:44.983Z,18.88
2018-08-10T01:44:44.979Z,18.88
2018-08-10T01:45:44.965Z,18.85
2018-08-10T01:46:44.960Z,18.90
2018-08-10T01:47:44.951Z,18.91
2018-08-10T01:48:44.939Z,18.87
2018-08-10T01:49:44.940Z,18.87
2018-08-10T01:50:44.923Z,18.91
2018-08-10T01:51:44.919Z,18.90
2018-08-10T01:52:44.913Z,18.94
2018-08-10T01:53:44.902Z,19.00
2018-08-10T01:54:44.903Z,18.95
2018-08-10T01:55:44.889Z,18.94
2018-08-10T01:56:44.877Z,18.99
2018-08-10T01:57:44.875Z,18.92
2018-08-10T01:58:44.865Z,18.98
2018-08-10T01:59:44.856Z,18.92
2018-08-10T02:00:44.849Z,18.94
2018-08-10T02:01:44.844Z,19.00
2018-08-10T02:02:44.834Z,18.98
2018-08-10T02:03:44.825Z,18.92
2018-08-10T02:04:44.814Z,18.92
2018-08-10T02:05:44.809Z,18.80
2018-08-10T02:06:44.804Z,18.87
2018-08-10T02:07:44.795Z,18.82
2018-08-10T02:08:44.789Z,18.91
2018-08-10T02:09:44.779Z,18.85
2018-08-10T02:10:44.777Z,18.88
2018-08-10T02:11:44.761Z,18.87
2018-08-10T02:12:44.761Z,18.90
2018-08-10T02:13:44.754Z,18.90
2018-08-10T02:14:44.737Z,18.90
2018-08-10T02:15:44.735Z,18.90
2018-08-10T02:16:44.726Z,18.87
2018-08-10T02:17:44.717Z,18.85
2018-08-10T02:18:44.713Z,18.90
2018-08-10T02:19:44.698Z,18.94
2018-08-10T02:20:44.692Z,18.87
2018-08-10T02:21:44.683Z,18.87
2018-08-10T02:22:44.677Z,18.91
2018-08-10T02:23:44.672Z,18.95
2018-08-10T02:24:44.683Z,18.92
2018-08-10T02:25:44.655Z,18.90
2018-08-10T02:26:44.653Z,18.85
2018-08-10T02:27:44.635Z,19.02
2018-08-10T02:28:44.631Z,18.90
2018-08-10T02:29:44.623Z,18.94
2018-08-10T02:30:44.615Z,18.92
2018-08-10T02:31:44.614Z,18.92
2018-08-10T02:32:44.602Z,18.92
2018-08-10T02:33:44.595Z,18.94
2018-08-10T02:34:44.588Z,19.00
2018-08-10T02:35:44.577Z,18.92
2018-08-10T02:36:44.565Z,18.91
2018-08-10T02:37:44.562Z,18.95
2018-08-10T02:38:44.553Z,18.90
2018-08-10T02:39:44.549Z,18.92
2018-08-10T02:40:44.542Z,18.91
2018-08-10T02:41:44.530Z,18.90
2018-08-10T02:42:44.524Z,18.88
2018-08-10T02:43:44.517Z,18.90
2018-08-10T02:44:44.511Z,18.87
2018-08-10T02:45:44.494Z,18.84
2018-08-10T02:46:44.492Z,18.92
2018-08-10T02:47:44.493Z,18.87
2018-08-10T02:48:44.481Z,18.99
2018-08-10T02:49:44.472Z,18.98
2018-08-10T02:50:44.461Z,18.87
2018-08-10T02:51:44.457Z,18.99
2018-08-10T02:52:44.446Z,18.84
2018-08-10T02:53:44.435Z,18.81
2018-08-10T02:54:44.432Z,18.87
2018-08-10T02:55:44.424Z,18.80
2018-08-10T02:56:44.414Z,18.82
2018-08-10T02:57:44.410Z,18.80
2018-08-10T02:58:44.400Z,18.87
2018-08-10T02:59:44.390Z,18.82
2018-08-10T03:00:44.380Z,18.85
2018-08-10T03:01:44.377Z,18.91
2018-08-10T03:02:44.370Z,18.90
2018-08-10T03:03:44.354Z,18.80
2018-08-10T03:04:44.353Z,18.92
2018-08-10T03:05:44.341Z,18.92
2018-08-10T03:06:44.333Z,18.88
2018-08-10T03:07:44.331Z,18.91
2018-08-10T03:08:44.322Z,18.90
2018-08-10T03:09:44.313Z,18.91
2018-08-10T03:10:44.305Z,18.90
2018-08-10T03:11:44.297Z,18.94
2018-08-10T03:12:44.285Z,18.85
2018-08-10T03:13:44.277Z,18.87
2018-08-10T03:14:44.277Z,18.88
2018-08-10T03:15:44.270Z,18.84
2018-08-10T03:16:44.253Z,18.90
2018-08-10T03:17:44.249Z,18.87
2018-08-10T03:18:44.247Z,18.80
2018-08-10T03:19:44.239Z,18.78
2018-08-10T03:20:44.231Z,18.70
2018-08-10T03:21:44.219Z,18.55
2018-08-10T03:22:44.210Z,18.45
2018-08-10T03:23:44.204Z,18.30
2018-08-10T03:24:44.197Z,18.18
2018-08-10T03:25:44.188Z,18.11
2018-08-10T03:26:44.182Z,18.11
2018-08-10T03:27:44.179Z,18.10
2018-08-10T03:28:44.163Z,17.97
2018-08-10T03:29:44.155Z,18.05
2018-08-10T03:30:44.148Z,18.08
2018-08-10T03:31:44.135Z,18.03
2018-08-10T03:32:44.135Z,18.12
2018-08-10T03:33:44.123Z,18.05
2018-08-10T03:34:44.119Z,18.03
2018-08-10T03:35:44.106Z,18.05
2018-08-10T03:36:44.098Z,17.99
2018-08-10T03:37:44.094Z,17.99
2018-08-10T03:38:44.091Z,18.05
2018-08-10T03:39:44.078Z,18.07
2018-08-10T03:40:44.067Z,18.05
2018-08-10T03:41:44.057Z,18.05
2018-08-10T03:42:44.051Z,18.03
2018-08-10T03:43:44.041Z,17.96
2018-08-10T03:44:44.036Z,17.99
2018-08-10T03:45:44.026Z,17.95
2018-08-10T03:46:44.018Z,18.11
2018-08-10T03:47:44.010Z,17.96
2018-08-10T03:48:44.001Z,18.08
2018-08-10T03:49:44.044Z,18.12
2018-08-10T03:50:43.987Z,18.03
2018-08-10T03:51:43.978Z,18.12
2018-08-10T03:52:43.977Z,18.11
2018-08-10T03:53:43.961Z,18.21
2018-08-10T03:54:43.960Z,18.21
2018-08-10T03:55:43.942Z,18.27
2018-08-10T03:56:43.938Z,18.29
2018-08-10T03:57:43.927Z,18.20
2018-08-10T03:58:43.923Z,18.25
2018-08-10T03:59:43.915Z,17.99
2018-08-10T04:00:43.909Z,18.02
2018-08-10T04:01:43.898Z,17.92
2018-08-10T04:02:43.884Z,17.78
2018-08-10T04:03:43.878Z,17.81
2018-08-10T04:04:43.878Z,17.82
2018-08-10T04:05:43.862Z,17.79
2018-08-10T04:06:43.857Z,17.74
2018-08-10T04:07:43.860Z,17.74
2018-08-10T04:08:43.843Z,17.74
2018-08-10T04:09:43.828Z,17.64
2018-08-10T04:10:43.824Z,17.62
2018-08-10T04:11:43.812Z,17.54
2018-08-10T04:12:43.810Z,17.52
2018-08-10T04:13:43.806Z,17.46
2018-08-10T04:14:43.792Z,17.46
2018-08-10T04:15:43.781Z,17.48
2018-08-10T04:16:43.782Z,17.40
2018-08-10T04:17:43.768Z,17.41
2018-08-10T04:18:43.760Z,17.34
2018-08-10T04:19:43.752Z,17.38
2018-08-10T04:20:43.744Z,17.40
2018-08-10T04:21:43.731Z,17.34
2018-08-10T04:22:43.729Z,17.28
2018-08-10T04:23:43.712Z,17.43
2018-08-10T04:24:43.706Z,17.28
2018-08-10T04:25:43.698Z,17.31
2018-08-10T04:26:43.692Z,17.31
2018-08-10T04:27:43.688Z,17.30
2018-08-10T04:28:43.672Z,17.28
2018-08-10T04:29:43.750Z,17.26
2018-08-10T04:30:43.657Z,17.25
2018-08-10T04:31:43.646Z,17.31
2018-08-10T04:32:43.635Z,17.22
2018-08-10T04:33:43.628Z,17.22
2018-08-10T04:34:43.627Z,17.18
2018-08-10T04:35:43.619Z,17.14
2018-08-10T04:36:43.607Z,17.08
2018-08-10T04:37:43.603Z,17.04
2018-08-10T04:38:43.583Z,16.98
2018-08-10T04:39:43.583Z,16.94
2018-08-10T04:40:43.570Z,16.83
2018-08-10T04:41:43.562Z,16.75
2018-08-10T04:42:43.558Z,16.64
2018-08-10T04:43:43.544Z,16.60
2018-08-10T04:44:43.541Z,16.61
2018-08-10T04:45:43.523Z,16.64
2018-08-10T04:46:43.519Z,16.57
2018-08-10T04:47:43.515Z,16.61
2018-08-10T04:48:43.504Z,16.66
2018-08-10T04:49:43.494Z,16.68
2018-08-10T04:50:43.490Z,16.61
2018-08-10T04:51:43.480Z,16.61
2018-08-10T04:52:43.472Z,16.70
2018-08-10T04:53:43.460Z,16.66
2018-08-10T04:54:43.454Z,16.75
2018-08-10T04:55:43.445Z,16.64
2018-08-10T04:56:43.435Z,16.68
2018-08-10T04:57:43.426Z,16.61
2018-08-10T04:58:43.415Z,16.63
2018-08-10T04:59:43.407Z,16.58
2018-08-10T05:00:43.399Z,16.60
2018-08-10T05:01:43.387Z,16.56
2018-08-10T05:02:43.385Z,16.46
2018-08-10T05:03:43.404Z,16.64
2018-08-10T05:04:43.360Z,16.57
2018-08-10T05:05:43.356Z,16.64
2018-08-10T05:06:43.342Z,16.73
2018-08-10T05:07:43.343Z,16.63
2018-08-10T05:08:43.324Z,16.70
2018-08-10T05:09:43.328Z,16.71
2018-08-10T05:10:43.311Z,16.61
2018-08-10T05:11:43.300Z,16.60
2018-08-10T05:12:43.291Z,16.67
2018-08-10T05:13:43.285Z,16.66
2018-08-10T05:14:43.275Z,16.56
2018-08-10T05:15:43.294Z,16.46
2018-08-10T05:16:43.262Z,16.53
2018-08-10T05:17:43.247Z,16.52
2018-08-10T05:18:43.242Z,16.46
2018-08-10T05:19:43.234Z,16.43
2018-08-10T05:20:43.221Z,16.38
2018-08-10T05:21:43.210Z,16.23
2018-08-10T05:22:43.208Z,16.25
2018-08-10T05:23:43.201Z,16.15
2018-08-10T05:24:43.220Z,16.20
2018-08-10T05:25:43.174Z,16.08
2018-08-10T05:26:43.166Z,16.17
2018-08-10T05:27:43.156Z,16.05
2018-08-10T05:28:43.152Z,15.97
2018-08-10T05:29:43.142Z,16.00
2018-08-10T05:30:43.131Z,16.05
2018-08-10T05:31:43.125Z,16.00
2018-08-10T05:32:43.113Z,16.00
2018-08-10T05:33:43.105Z,15.93
2018-08-10T05:34:43.115Z,15.84
2018-08-10T05:35:43.087Z,15.90
2018-08-10T05:36:43.074Z,15.93
2018-08-10T05:37:43.068Z,15.94
2018-08-10T05:38:43.060Z,15.96
2018-08-10T05:39:43.049Z,15.94
2018-08-10T05:40:43.036Z,16.01
2018-08-10T05:41:43.025Z,16.01
2018-08-10T05:42:43.023Z,16.00
2018-08-10T05:43:43.012Z,16.04
2018-08-10T05:44:43.008Z,16.01
2018-08-10T05:45:43.001Z,15.96
2018-08-10T05:46:43.026Z,15.94
2018-08-10T05:47:42.971Z,15.83
2018-08-10T05:48:42.960Z,15.93
2018-08-10T05:49:42.959Z,15.87
2018-08-10T05:50:42.946Z,15.83
2018-08-10T05:51:42.937Z,15.89
2018-08-10T05:52:42.927Z,15.94
2018-08-10T05:53:42.919Z,15.90
2018-08-10T05:54:42.913Z,15.97
2018-08-10T05:55:42.903Z,15.93
2018-08-10T05:56:42.893Z,15.84
2018-08-10T05:57:42.884Z,15.76
2018-08-10T05:58:42.874Z,15.78
2018-08-10T05:59:42.865Z,15.71
2018-08-10T06:00:42.918Z,15.80
2018-08-10T06:01:42.844Z,15.80
2018-08-10T06:02:42.836Z,15.72
2018-08-10T06:03:42.839Z,15.65
2018-08-10T06:04:42.820Z,15.68
2018-08-10T06:05:42.810Z,15.60
2018-08-10T06:06:42.805Z,15.60
2018-08-10T06:07:42.785Z,15.54
2018-08-10T06:08:42.784Z,15.59
2018-08-10T06:09:42.769Z,15.50
2018-08-10T06:10:42.765Z,15.60
2018-08-10T06:11:42.752Z,15.59
2018-08-10T06:12:42.744Z,15.54
2018-08-10T06:13:42.734Z,15.54
2018-08-10T06:14:42.728Z,15.59
2018-08-10T06:15:42.712Z,15.53
2018-08-10T06:16:42.705Z,15.53
2018-08-10T06:17:42.701Z,15.46
2018-08-10T06:18:42.687Z,15.51
2018-08-10T06:19:42.830Z,15.36
2018-08-10T06:20:42.671Z,15.41
2018-08-10T06:21:42.729Z,15.34
2018-08-10T06:22:42.697Z,15.34
2018-08-10T06:23:42.639Z,15.34
2018-08-10T06:24:42.634Z,15.38
2018-08-10T06:25:42.616Z,15.41
2018-08-10T06:26:42.614Z,15.41
2018-08-10T06:27:42.656Z,15.38
2018-08-10T06:28:42.596Z,15.49
2018-08-10T06:29:42.582Z,15.54
2018-08-10T06:30:42.579Z,15.49
2018-08-10T06:31:42.630Z,15.39
2018-08-10T06:32:42.563Z,15.53
2018-08-10T06:33:42.582Z,15.50
2018-08-10T06:34:42.538Z,15.41
2018-08-10T06:35:42.524Z,15.43
2018-08-10T06:36:42.518Z,15.50
2018-08-10T06:37:42.504Z,15.38
2018-08-10T06:38:42.502Z,15.46
2018-08-10T06:39:42.500Z,15.39
2018-08-10T06:40:42.480Z,15.38
2018-08-10T06:41:42.468Z,15.36
2018-08-10T06:42:42.460Z,15.25
2018-08-10T06:43:42.457Z,15.23
2018-08-10T06:44:42.456Z,15.28
2018-08-10T06:45:42.434Z,15.27
2018-08-10T06:46:42.426Z,15.23
2018-08-10T06:47:42.418Z,15.27
2018-08-10T06:48:42.411Z,15.27
2018-08-10T06:49:42.391Z,15.28
2018-08-10T06:50:42.385Z,15.34
2018-08-10T06:51:42.375Z,15.25
2018-08-10T06:52:42.364Z,15.28
2018-08-10T06:53:42.358Z,15.29
2018-08-10T06:54:42.343Z,15.31
2018-08-10T06:55:42.406Z,15.35
2018-08-10T06:56:42.329Z,15.27
2018-08-10T06:57:42.326Z,15.21
2018-08-10T06:58:42.309Z,15.21
2018-08-10T06:59:42.302Z,15.19
2018-08-10T07:00:42.363Z,15.29
2018-08-10T07:01:42.319Z,15.23
2018-08-10T07:02:42.268Z,15.25
2018-08-10T07:03:42.266Z,15.27
2018-08-10T07:04:42.251Z,15.25
2018-08-10T07:05:42.238Z,15.25
2018-08-10T07:06:42.237Z,15.34
2018-08-10T07:07:42.237Z,15.38
2018-08-10T07:08:42.214Z,15.36
2018-08-10T07:09:42.208Z,15.47
2018-08-10T07:10:42.196Z,15.46
2018-08-10T07:11:42.181Z,15.38
2018-08-10T07:12:42.177Z,15.38
2018-08-10T07:13:42.324Z,15.51
2018-08-10T07:14:42.157Z,15.47
2018-08-10T07:15:42.147Z,15.39
2018-08-10T07:16:42.138Z,15.51
2018-08-10T07:17:42.123Z,15.49
2018-08-10T07:18:42.114Z,15.57
2018-08-10T07:19:42.105Z,15.51
2018-08-10T07:20:42.099Z,15.57
2018-08-10T07:21:42.089Z,15.51
2018-08-10T07:22:42.080Z,15.50
2018-08-10T07:23:42.072Z,15.74
2018-08-10T07:24:42.062Z,15.68
2018-08-10T07:25:42.052Z,15.65
2018-08-10T07:26:42.039Z,15.56
2018-08-10T07:27:42.034Z,15.51
2018-08-10T07:28:42.021Z,15.54
2018-08-10T07:29:42.015Z,15.59
2018-08-10T07:30:42.003Z,15.53
2018-08-10T07:31:41.997Z,15.43
2018-08-10T07:32:41.982Z,15.47
2018-08-10T07:33:41.981Z,15.47
2018-08-10T07:34:41.966Z,15.46
2018-08-10T07:35:41.955Z,15.39
2018-08-10T07:36:41.962Z,15.41
2018-08-10T07:37:41.939Z,15.41
2018-08-10T07:38:41.929Z,15.35
2018-08-10T07:39:41.923Z,15.41
2018-08-10T07:40:41.906Z,15.35
2018-08-10T07:41:41.898Z,15.32
2018-08-10T07:42:41.892Z,15.36
2018-08-10T07:43:41.890Z,15.38
2018-08-10T07:44:41.869Z,15.41
2018-08-10T07:45:41.863Z,15.36
2018-08-10T07:46:41.851Z,15.36
2018-08-10T07:47:41.842Z,15.41
2018-08-10T07:48:41.837Z,15.35
2018-08-10T07:49:41.825Z,15.44
2018-08-10T07:50:41.813Z,15.35
2018-08-10T07:51:41.837Z,15.28
2018-08-10T07:52:41.798Z,15.16
2018-08-10T07:53:41.790Z,15.06
2018-08-10T07:54:41.774Z,15.06
2018-08-10T07:55:41.767Z,14.98
2018-08-10T07:56:41.755Z,14.91
2018-08-10T07:57:41.747Z,14.92
2018-08-10T07:58:41.735Z,14.94
2018-08-10T07:59:41.727Z,14.96
2018-08-10T08:00:41.722Z,14.94
2018-08-10T08:01:41.708Z,14.98
2018-08-10T08:02:41.700Z,14.99
2018-08-10T08:03:41.690Z,15.02
2018-08-10T08:04:41.682Z,15.01
2018-08-10T08:05:41.674Z,14.94
2018-08-10T08:06:41.660Z,14.96
2018-08-10T08:07:41.652Z,14.96
2018-08-10T08:08:41.642Z,14.84
2018-08-10T08:09:41.636Z,14.77
2018-08-10T08:10:41.624Z,14.73
2018-08-10T08:11:41.616Z,14.77
2018-08-10T08:12:41.603Z,14.72
2018-08-10T08:13:41.650Z,14.86
2018-08-10T08:14:41.581Z,14.84
2018-08-10T08:15:41.578Z,14.95
2018-08-10T08:16:41.562Z,15.01
2018-08-10T08:17:41.556Z,14.95
2018-08-10T08:18:41.549Z,15.06
2018-08-10T08:19:41.665Z,15.16
2018-08-10T08:20:41.522Z,15.23
2018-08-10T08:21:41.514Z,15.34
2018-08-10T08:22:41.507Z,15.36
2018-08-10T08:23:41.499Z,15.39
2018-08-10T08:24:41.486Z,15.59
2018-08-10T08:25:41.487Z,15.59
2018-08-10T08:26:41.473Z,15.54
2018-08-10T08:27:41.453Z,15.68
2018-08-10T08:28:41.450Z,15.78
2018-08-10T08:29:41.438Z,15.76
2018-08-10T08:30:41.428Z,15.89
2018-08-10T08:31:41.421Z,15.97
2018-08-10T08:32:41.411Z,16.08
2018-08-10T08:33:41.397Z,16.05
2018-08-10T08:34:41.446Z,16.07
2018-08-10T08:35:41.383Z,16.08
2018-08-10T08:36:41.373Z,16.11
2018-08-10T08:37:41.362Z,16.07
2018-08-10T08:38:41.352Z,16.11
2018-08-10T08:39:41.339Z,16.07
2018-08-10T08:40:41.338Z,16.12
2018-08-10T08:41:41.323Z,16.14
2018-08-10T08:42:41.316Z,16.25
2018-08-10T08:43:41.310Z,16.21
2018-08-10T08:44:41.321Z,16.25
2018-08-10T08:45:41.414Z,16.27
2018-08-10T08:46:41.438Z,16.28
2018-08-10T08:47:41.271Z,16.30
2018-08-10T08:48:41.259Z,16.28
2018-08-10T08:49:41.249Z,16.28
2018-08-10T08:50:41.242Z,16.30
2018-08-10T08:51:41.231Z,16.20
2018-08-10T08:52:41.224Z,16.15
2018-08-10T08:53:41.219Z,16.12
2018-08-10T08:54:41.201Z,16.11
2018-08-10T08:55:41.198Z,16.23
2018-08-10T08:56:41.188Z,16.11
2018-08-10T08:57:41.178Z,16.11
2018-08-10T08:58:41.170Z,16.02
2018-08-10T08:59:41.156Z,16.08
2018-08-10T09:00:41.145Z,16.08
2018-08-10T09:01:41.140Z,16.05
2018-08-10T09:02:41.133Z,16.02
2018-08-10T09:03:41.129Z,15.97
2018-08-10T09:04:41.110Z,15.87
2018-08-10T09:05:41.102Z,15.78
2018-08-10T09:06:41.094Z,15.83
2018-08-10T09:07:41.110Z,15.62
2018-08-10T09:08:41.076Z,15.62
2018-08-10T09:09:41.069Z,15.50
2018-08-10T09:10:41.054Z,15.47
2018-08-10T09:11:41.046Z,15.43
2018-08-10T09:12:41.038Z,15.34
2018-08-10T09:13:41.029Z,15.41
2018-08-10T09:14:41.019Z,15.41
2018-08-10T09:15:41.011Z,15.43
2018-08-10T09:16:41.000Z,15.56
2018-08-10T09:17:41.091Z,15.50
2018-08-10T09:18:40.985Z,15.59
2018-08-10T09:19:40.980Z,15.54
2018-08-10T09:20:40.962Z,15.65
2018-08-10T09:21:40.954Z,15.72
2018-08-10T09:22:40.948Z,15.86
2018-08-10T09:23:40.938Z,15.90
2018-08-10T09:24:40.924Z,16.02
2018-08-10T09:25:40.927Z,16.04
2018-08-10T09:26:40.908Z,16.11
2018-08-10T09:27:40.900Z,16.27
2018-08-10T09:28:40.884Z,16.27
2018-08-10T09:29:40.877Z,16.39
2018-08-10T09:30:40.869Z,16.49
2018-08-10T09:31:40.859Z,16.64
2018-08-10T09:32:40.853Z,16.60
2018-08-10T09:33:40.843Z,16.60
2018-08-10T09:34:40.835Z,16.75
2018-08-10T09:35:40.830Z,16.66
2018-08-10T09:36:40.824Z,16.86
2018-08-10T09:37:40.812Z,16.86
2018-08-10T09:38:40.870Z,16.85
2018-08-10T09:39:40.784Z,16.98
2018-08-10T09:40:40.780Z,16.93
2018-08-10T09:41:40.772Z,17.01
2018-08-10T09:42:40.760Z,16.98
2018-08-10T09:43:40.746Z,17.00
2018-08-10T09:44:40.738Z,16.98
2018-08-10T09:45:40.731Z,17.03
2018-08-10T09:46:40.721Z,17.18
2018-08-10T09:47:40.717Z,17.22
2018-08-10T09:48:40.701Z,17.31
2018-08-10T09:49:40.698Z,17.22
2018-08-10T09:50:40.690Z,17.28
2018-08-10T09:51:40.717Z,17.26
2018-08-10T09:52:40.672Z,17.22
2018-08-10T09:53:40.660Z,17.25
2018-08-10T09:54:40.650Z,17.33
2018-08-10T09:55:40.644Z,17.46
2018-08-10T09:56:40.636Z,17.40
2018-08-10T09:57:40.630Z,17.48
2018-08-10T09:58:40.618Z,17.48
2018-08-10T09:59:40.643Z,17.44
2018-08-10T10:00:40.597Z,17.44
2018-08-10T10:01:40.587Z,17.36
2018-08-10T10:02:40.584Z,17.38
2018-08-10T10:03:40.573Z,17.46
2018-08-10T10:04:40.564Z,17.55
2018-08-10T10:05:40.554Z,17.58
2018-08-10T10:06:40.592Z,17.62
2018-08-10T10:07:40.537Z,17.68
2018-08-10T10:08:40.529Z,17.74
2018-08-10T10:09:40.523Z,17.75
2018-08-10T10:10:40.513Z,17.81
2018-08-10T10:11:40.503Z,17.95
2018-08-10T10:12:40.492Z,18.00
2018-08-10T10:13:40.489Z,18.02
2018-08-10T10:14:40.470Z,18.15
2018-08-10T10:15:40.470Z,18.18
2018-08-10T10:16:40.460Z,18.25
2018-08-10T10:17:40.450Z,18.29
2018-08-10T10:18:40.447Z,18.41
2018-08-10T10:19:40.438Z,18.45
2018-08-10T10:20:40.424Z,18.63
2018-08-10T10:21:40.420Z,18.58
2018-08-10T10:22:40.412Z,18.57
2018-08-10T10:23:40.401Z,18.62
2018-08-10T10:24:40.389Z,18.69
2018-08-10T10:25:40.381Z,18.76
2018-08-10T10:26:40.375Z,18.81
2018-08-10T10:27:40.366Z,18.91
2018-08-10T10:28:40.361Z,18.87
2018-08-10T10:29:40.351Z,18.91
2018-08-10T10:30:40.350Z,18.88
2018-08-10T10:31:40.336Z,18.87
2018-08-10T10:32:40.370Z,18.90
2018-08-10T10:33:40.326Z,18.76
2018-08-10T10:34:40.312Z,18.69
2018-08-10T10:35:40.306Z,18.60
2018-08-10T10:36:40.292Z,18.50
2018-08-10T10:37:40.290Z,18.55
2018-08-10T10:38:40.285Z,18.50
2018-08-10T10:39:40.272Z,18.57
2018-08-10T10:40:40.266Z,18.54
2018-08-10T10:41:40.256Z,18.58
2018-08-10T10:42:40.246Z,18.62
2018-08-10T10:43:40.239Z,18.62
2018-08-10T10:44:40.232Z,18.57
2018-08-10T10:45:40.224Z,18.62
2018-08-10T10:46:40.216Z,18.52
2018-08-10T10:47:40.212Z,18.54
2018-08-10T10:48:40.195Z,18.58
2018-08-10T10:49:40.191Z,18.58
2018-08-10T10:50:40.186Z,18.51
2018-08-10T10:51:40.177Z,18.57
2018-08-10T10:52:40.169Z,18.67
2018-08-10T10:53:40.161Z,18.73
2018-08-10T10:54:40.151Z,18.75
2018-08-10T10:55:40.210Z,18.70
2018-08-10T10:56:40.289Z,18.52
2018-08-10T10:57:40.126Z,18.58
2018-08-10T10:58:40.120Z,18.51
2018-08-10T10:59:40.108Z,18.27
2018-08-10T11:00:40.104Z,18.18
2018-08-10T11:01:40.099Z,18.08
2018-08-10T11:02:40.090Z,18.03
2018-08-10T11:03:40.077Z,18.03
2018-08-10T11:04:40.072Z,18.07
2018-08-10T11:05:40.065Z,18.03
2018-08-10T11:06:40.060Z,18.10
2018-08-10T11:07:40.053Z,18.21
2018-08-10T11:08:40.038Z,18.10
2018-08-10T11:09:40.028Z,18.03
2018-08-10T11:10:40.025Z,18.10
2018-08-10T11:11:40.014Z,18.07
2018-08-10T11:12:40.006Z,18.07
2018-08-10T11:13:39.995Z,17.97
2018-08-10T11:14:39.993Z,17.92
2018-08-10T11:15:39.985Z,17.78
2018-08-10T11:16:39.971Z,17.75
2018-08-10T11:17:39.965Z,17.56
2018-08-10T11:18:39.956Z,17.68
2018-08-10T11:19:39.946Z,17.64
2018-08-10T11:20:39.940Z,17.70
2018-08-10T11:21:39.940Z,17.68
2018-08-10T11:22:39.930Z,17.66
2018-08-10T11:23:39.921Z,17.71
2018-08-10T11:24:39.906Z,17.72
2018-08-10T11:25:39.995Z,17.68
2018-08-10T11:26:39.886Z,17.68
2018-08-10T11:27:39.885Z,17.72
2018-08-10T11:28:39.875Z,17.68
2018-08-10T11:29:39.866Z,17.72
2018-08-10T11:30:39.855Z,17.78
2018-08-10T11:31:39.849Z,17.71
2018-08-10T11:32:39.841Z,17.75
2018-08-10T11:33:39.829Z,17.77
2018-08-10T11:34:39.825Z,17.75
2018-08-10T11:35:39.814Z,17.79
2018-08-10T11:36:39.813Z,17.90
2018-08-10T11:37:39.795Z,17.97
2018-08-10T11:38:39.792Z,17.99
2018-08-10T11:39:39.784Z,18.05
2018-08-10T11:40:39.772Z,17.93
2018-08-10T11:41:39.868Z,17.87
2018-08-10T11:42:39.754Z,17.86
2018-08-10T11:43:39.747Z,17.75
2018-08-10T11:44:39.745Z,17.78
2018-08-10T11:45:39.735Z,17.75
2018-08-10T11:46:39.717Z,17.82
2018-08-10T11:47:39.714Z,17.81
2018-08-10T11:48:39.704Z,17.68
2018-08-10T11:49:39.699Z,17.58
2018-08-10T11:50:39.687Z,17.64
2018-08-10T11:51:39.680Z,17.52
2018-08-10T11:52:39.749Z,17.52
2018-08-10T11:53:39.664Z,17.62
2018-08-10T11:54:39.651Z,17.56
2018-08-10T11:55:39.653Z,17.59
2018-08-10T11:56:39.638Z,17.59
2018-08-10T11:57:39.626Z,17.52
2018-08-10T11:58:39.620Z,17.54
2018-08-10T11:59:39.613Z,17.55
2018-08-10T12:00:39.603Z,17.56
2018-08-10T12:01:39.594Z,17.52
2018-08-10T12:02:39.587Z,17.52
2018-08-10T12:03:39.585Z,17.52
2018-08-10T12:04:39.568Z,17.54
2018-08-10T12:05:39.595Z,17.52
2018-08-10T12:06:39.551Z,17.63
2018-08-10T12:07:39.544Z,17.71
2018-08-10T12:08:39.538Z,17.72
2018-08-10T12:09:39.527Z,17.75
2018-08-10T12:10:39.528Z,17.79
2018-08-10T12:11:39.508Z,17.92
2018-08-10T12:12:39.592Z,17.90
2018-08-10T12:13:39.495Z,18.08
2018-08-10T12:14:39.489Z,17.89
2018-08-10T12:15:39.476Z,18.00
2018-08-10T12:16:39.472Z,17.97
2018-08-10T12:17:39.462Z,17.99
2018-08-10T12:18:39.457Z,17.93
2018-08-10T12:19:39.443Z,18.00
2018-08-10T12:20:39.433Z,18.02
2018-08-10T12:21:39.428Z,18.05
2018-08-10T12:22:39.424Z,18.05
2018-08-10T12:23:39.411Z,18.03
2018-08-10T12:24:39.462Z,18.07
2018-08-10T12:25:39.398Z,18.10
2018-08-10T12:26:39.388Z,18.18
2018-08-10T12:27:39.376Z,18.21
2018-08-10T12:28:39.371Z,18.18
2018-08-10T12:29:39.359Z,18.11
2018-08-10T12:30:39.352Z,18.08
2018-08-10T12:31:39.343Z,18.08
2018-08-10T12:32:39.330Z,18.25
2018-08-10T12:33:39.327Z,18.07
2018-08-10T12:34:39.316Z,18.02
2018-08-10T12:35:39.315Z,18.07
2018-08-10T12:36:39.304Z,17.99
2018-08-10T12:37:39.290Z,17.84
2018-08-10T12:38:39.288Z,17.81
2018-08-10T12:39:39.279Z,17.77
2018-08-10T12:40:39.266Z,17.75
2018-08-10T12:41:39.259Z,17.78
2018-08-10T12:42:39.255Z,17.77
2018-08-10T12:43:39.239Z,17.79
2018-08-10T12:44:39.238Z,17.89
2018-08-10T12:45:39.223Z,17.87
2018-08-10T12:46:39.352Z,17.87
2018-08-10T12:47:39.207Z,17.97
2018-08-10T12:48:39.200Z,17.89
2018-08-10T12:49:39.199Z,17.93
2018-08-10T12:50:39.318Z,17.99
2018-08-10T12:51:39.171Z,18.03
2018-08-10T12:52:39.169Z,17.93